Terminal Aerodrome Forecast
Issued by NWS Louisville, KY

Home | Current Version | Previous Version | Text Only | Print | Product List | Glossary On
Versions: 1 2 3 4 5 6 7 8 9 10 11 12 13 14 15 16 17
000
FTUS43 KLMK 151700
TAFBWG
TAF
KBWG 151728Z 1518/1618 24005KT P6SM FEW050 BKN150
     FM160300 VRB04KT P6SM VCSH BKN040
     FM160900 VRB04KT P6SM SCT012 BKN025
     FM161000 33005KT 6SM BR BKN012 OVC025
     FM161500 35005KT P6SM SCT015 BKN025=

USA.gov is the U.S. government's official web portal to all federal, state and local government web resources and services.